Time;durP1;ratioP1;P1;durP2;ratioP2;P2;SDS_P1;SDS_P2;PMS_P1;PMS_P2;Temp;Humidity;BMP_temperature;BMP_pressure;BME280_temperature;BME280_humidity;BME280_pressure;Samples;Min_cycle;Max_cycle;Signal;HPM_P1;HPM_P2
2022/07/30 00:01:52;;;;;;;3.45;2.87;;;;;;;17.29;100.00;101217.47;1671423;84;21118;-92
2022/07/30 00:04:20;;;;;;;4.30;3.12;;;;;;;17.24;100.00;101213.11;1724784;82;21801;-92
2022/07/30 00:06:47;;;;;;;5.80;3.22;;;;;;;17.16;100.00;101208.08;1724076;82;22016;-92
2022/07/30 00:09:16;;;;;;;4.80;3.05;;;;;;;17.08;100.00;101211.11;1688380;84;21031;-92
2022/07/30 00:11:44;;;;;;;6.70;2.80;;;;;;;16.99;100.00;101205.73;1677880;84;21163;-92
2022/07/30 00:14:12;;;;;;;4.05;3.10;;;;;;;16.94;100.00;101213.23;1665488;85;21090;-93
2022/07/30 00:16:42;;;;;;;5.33;2.85;;;;;;;16.93;100.00;101209.41;1667792;85;21562;-92
2022/07/30 00:19:13;;;;;;;5.55;2.90;;;;;;;16.92;100.00;101201.98;1674198;84;21030;-92
2022/07/30 00:21:41;;;;;;;5.42;2.90;;;;;;;16.89;100.00;101210.14;1710343;83;20951;-91
2022/07/30 00:24:11;;;;;;;6.92;3.30;;;;;;;16.79;100.00;101209.33;1667543;84;21181;-91
2022/07/30 00:26:40;;;;;;;6.47;3.12;;;;;;;16.70;100.00;101209.70;1672376;84;20971;-91
2022/07/30 00:29:08;;;;;;;4.58;2.95;;;;;;;16.61;100.00;101207.91;1672738;84;21030;-92
2022/07/30 00:31:36;;;;;;;4.33;3.27;;;;;;;16.54;100.00;101208.98;1664801;84;21485;-91
2022/07/30 00:34:05;;;;;;;4.22;3.10;;;;;;;16.50;100.00;101212.84;1668677;84;21031;-92
2022/07/30 00:36:34;;;;;;;4.63;3.10;;;;;;;16.48;100.00;101209.05;1671313;85;21566;-92
2022/07/30 00:39:06;;;;;;;5.70;3.10;;;;;;;16.48;100.00;101208.20;1670106;85;21035;-92
2022/07/30 00:41:53;;;;;;;4.97;3.08;;;;;;;16.49;100.00;101199.35;1705294;83;21547;-92
2022/07/30 00:44:23;;;;;;;4.60;2.98;;;;;;;16.48;100.00;101203.79;1731533;82;21016;-91
2022/07/30 00:46:54;;;;;;;4.25;2.85;;;;;;;16.48;100.00;101201.16;1703009;84;21497;-92
2022/07/30 00:49:23;;;;;;;3.02;2.75;;;;;;;16.47;100.00;101200.81;1769180;80;21242;-92
2022/07/30 00:51:52;;;;;;;5.53;3.00;;;;;;;16.48;100.00;101201.62;1702723;84;20998;-91
2022/07/30 00:54:21;;;;;;;3.45;2.90;;;;;;;16.46;100.00;101199.66;1702980;83;21054;-91
2022/07/30 00:56:50;;;;;;;3.52;2.92;;;;;;;16.40;100.00;101194.46;1769017;80;21094;-91
2022/07/30 00:59:18;;;;;;;5.83;3.45;;;;;;;16.34;100.00;101197.16;1702408;83;21125;-93
2022/07/30 01:01:45;;;;;;;3.35;3.02;;;;;;;16.30;100.00;101193.16;1746882;81;21334;-93
2022/07/30 01:04:12;;;;;;;7.25;3.60;;;;;;;16.24;100.00;101196.31;1703513;83;21058;-94
2022/07/30 01:06:42;;;;;;;3.33;3.02;;;;;;;16.21;100.00;101197.92;1733614;82;21608;-92
2022/07/30 01:09:11;;;;;;;7.05;4.17;;;;;;;16.18;100.00;101192.47;1748776;80;21006;-92
2022/07/30 01:11:41;;;;;;;4.45;4.05;;;;;;;16.17;100.00;101198.69;1702229;83;21008;-92
2022/07/30 01:14:12;;;;;;;7.62;3.72;;;;;;;16.14;100.00;101195.51;1768973;80;21149;-91
2022/07/30 01:16:42;;;;;;;3.92;3.17;;;;;;;16.13;100.00;101199.09;1702816;83;21494;-92
2022/07/30 01:22:29;;;;;;;4.40;3.02;;;;;;;16.05;100.00;101193.20;1769968;80;21026;-92
2022/07/30 01:25:28;;;;;;;5.45;3.50;;;;;;;16.03;100.00;101190.72;1698213;84;21035;-92
2022/07/30 01:28:06;;;;;;;3.55;3.08;;;;;;;16.01;100.00;101188.71;1765950;80;21128;-91
2022/07/30 01:30:41;;;;;;;3.50;2.90;;;;;;;15.97;100.00;101182.09;1702858;84;21003;-92
2022/07/30 01:33:16;;;;;;;4.50;3.20;;;;;;;15.90;100.00;101193.61;1766440;81;20959;-91
2022/07/30 01:35:47;;;;;;;6.17;3.52;;;;;;;15.81;100.00;101187.01;1712641;83;21088;-93
2022/07/30 01:38:21;;;;;;;5.12;2.85;;;;;;;15.71;100.00;101187.81;1750103;82;21124;-92
2022/07/30 01:40:52;;;;;;;7.33;3.37;;;;;;;15.64;100.00;101185.38;1747180;82;21140;-91
2022/07/30 01:44:02;;;;;;;4.87;2.90;;;;;;;15.60;100.00;101182.66;1724534;82;21133;-91
2022/07/30 01:46:34;;;;;;;3.47;3.10;;;;;;;15.59;100.00;101181.84;1745056;82;21126;-91
2022/07/30 01:49:08;;;;;;;4.35;3.12;;;;;;;15.60;100.00;101182.20;1744942;82;21029;-93
2022/07/30 01:51:38;;;;;;;5.40;3.50;;;;;;;15.61;100.00;101182.55;1744334;82;20975;-91
2022/07/30 01:54:12;;;;;;;5.08;3.58;;;;;;;15.59;100.00;101184.94;1744863;82;21553;-92
2022/07/30 01:57:13;;;;;;;6.15;3.90;;;;;;;15.53;100.00;101186.79;1744962;81;20987;-92
2022/07/30 01:59:46;;;;;;;6.00;3.98;;;;;;;15.45;100.00;101186.98;1745089;81;21053;-93
2022/07/30 02:02:17;;;;;;;5.72;3.85;;;;;;;15.39;100.00;101189.30;1744937;82;21035;-92
2022/07/30 02:05:22;;;;;;;6.47;3.83;;;;;;;15.36;100.00;101192.20;1745161;81;21129;-93
2022/07/30 02:08:20;;;;;;;6.50;3.72;;;;;;;15.36;100.00;101190.40;1745133;81;21128;-92
2022/07/30 02:15:25;;;;;;;6.55;4.40;;;;;;;15.37;100.00;101201.73;1743650;82;21547;-93
2022/07/30 02:18:22;;;;;;;5.70;4.10;;;;;;;15.26;100.00;101197.42;1745156;82;21041;-92
2022/07/30 02:21:03;;;;;;;5.42;4.03;;;;;;;15.08;100.00;101199.80;1745144;82;21113;-92
2022/07/30 02:24:15;;;;;;;4.87;4.05;;;;;;;14.94;100.00;101195.75;1745540;81;21165;-92
2022/07/30 02:26:50;;;;;;;4.28;3.87;;;;;;;14.85;100.00;101204.39;1709233;84;21139;-92
2022/07/30 02:29:59;;;;;;;6.28;4.47;;;;;;;14.74;100.00;101202.67;1703791;83;21593;-92
2022/07/30 02:36:32;;;;;;;4.28;3.85;;;;;;;14.61;100.00;101204.95;1693515;84;21037;-92
2022/07/30 02:39:04;;;;;;;5.12;4.62;;;;;;;14.58;100.00;101210.44;1695943;83;21178;-92
2022/07/30 02:41:32;;;;;;;;;;;;;;;14.62;100.00;101211.86;1707303;83;21424;-93
2022/07/30 02:44:03;;;;;;;5.65;3.92;;;;;;;14.65;100.00;101218.64;1773181;80;20167;-92
2022/07/30 02:46:34;;;;;;;5.55;4.65;;;;;;;14.69;100.00;101218.78;1773666;80;20948;-93
2022/07/30 02:49:11;;;;;;;5.28;4.12;;;;;;;14.73;100.00;101219.36;1722779;81;21030;-93
2022/07/30 02:51:41;;;;;;;6.70;4.30;;;;;;;14.74;100.00;101215.78;1729164;83;21117;-93
2022/07/30 02:54:14;;;;;;;7.72;4.70;;;;;;;14.75;100.00;101216.95;1710787;83;21501;-92
2022/07/30 02:56:47;;;;;;;5.12;4.15;;;;;;;14.78;100.00;101224.55;1710982;83;21563;-92
2022/07/30 02:59:21;;;;;;;5.12;4.00;;;;;;;14.79;100.00;101222.77;1710645;83;21520;-92
2022/07/30 03:01:51;;;;;;;5.00;4.05;;;;;;;14.81;100.00;101222.98;1710767;83;21547;-92
2022/07/30 03:04:21;;;;;;;6.25;4.03;;;;;;;14.84;100.00;101216.65;1710589;83;21154;-91
2022/07/30 03:06:52;;;;;;;6.92;4.45;;;;;;;14.89;100.00;101216.27;1710687;83;21539;-92
2022/07/30 03:09:22;;;;;;;6.78;4.65;;;;;;;14.96;100.00;101220.88;1690299;83;21073;-91
2022/07/30 03:11:53;;;;;;;5.12;4.33;;;;;;;15.05;100.00;101214.02;1763590;80;20990;-91
2022/07/30 03:14:21;;;;;;;5.95;4.00;;;;;;;15.16;100.00;101221.46;1777057;80;21037;-89
2022/07/30 03:16:57;;;;;;;7.45;4.45;;;;;;;15.26;100.00;101218.41;1778138;80;21041;-90
2022/07/30 03:19:30;;;;;;;4.60;4.20;;;;;;;15.41;100.00;101224.96;1778801;80;21547;-89
2022/07/30 03:22:05;;;;;;;10.08;3.75;;;;;;;15.54;100.00;101222.58;1770625;80;21658;-89
2022/07/30 03:24:38;;;;;;;6.25;3.92;;;;;;;15.68;100.00;101226.14;1772610;80;21029;-90
2022/07/30 03:27:07;;;;;;;6.37;4.25;;;;;;;15.83;100.00;101216.56;1773151;80;21036;-89
2022/07/30 03:29:38;;;;;;;6.70;4.12;;;;;;;15.96;100.00;101222.45;1773929;80;22093;-88
2022/07/30 03:32:06;;;;;;;7.00;3.67;;;;;;;16.07;100.00;101226.24;1775642;80;21040;-92
2022/07/30 03:34:36;;;;;;;5.62;3.90;;;;;;;16.18;100.00;101224.47;1774876;80;20994;-92
2022/07/30 03:37:07;;;;;;;5.30;3.80;;;;;;;16.28;100.00;101222.68;1751868;80;21015;-91
2022/07/30 03:39:39;;;;;;;8.20;3.98;;;;;;;16.39;100.00;101219.89;1779641;80;21073;-90
2022/07/30 03:42:08;;;;;;;5.12;3.80;;;;;;;16.50;100.00;101220.73;1765070;80;22238;-90
2022/07/30 03:44:38;;;;;;;;;;;;;;;16.61;100.00;101219.28;1763111;80;20979;-88
2022/07/30 03:47:07;;;;;;;5.12;3.70;;;;;;;16.75;100.00;101225.06;1758627;80;20166;-89
2022/07/30 03:49:38;;;;;;;9.83;4.00;;;;;;;16.86;100.00;101224.42;1752174;81;21481;-89
2022/07/30 03:52:07;;;;;;;9.30;5.12;;;;;;;16.99;100.00;101220.66;1741044;80;21512;-90
2022/07/30 03:54:37;;;;;;;15.32;5.62;;;;;;;17.11;100.00;101220.00;1769528;81;21271;-89
2022/07/30 03:57:06;;;;;;;9.33;5.90;;;;;;;17.24;100.00;101221.84;1764480;81;21532;-92
2022/07/30 03:59:38;;;;;;;10.78;6.75;;;;;;;17.37;100.00;101229.42;1767088;81;21065;-89
2022/07/30 04:02:07;;;;;;;9.68;6.60;;;;;;;17.49;100.00;101224.30;1771251;81;21010;-89
2022/07/30 04:04:54;;;;;;;8.18;5.87;;;;;;;17.60;100.00;101221.95;1770912;81;21065;-88
2022/07/30 04:07:23;;;;;;;8.50;5.33;;;;;;;17.70;100.00;101217.97;1771525;81;21138;-90
2022/07/30 04:09:50;;;;;;;7.65;5.40;;;;;;;17.78;100.00;101219.84;1771196;81;21038;-90
2022/07/30 04:12:30;;;;;;;11.40;5.58;;;;;;;17.86;100.00;101214.66;1766757;81;21022;-91
2022/07/30 04:14:59;;;;;;;8.83;5.62;;;;;;;17.99;100.00;101210.89;1771104;81;21026;-92
2022/07/30 04:17:35;;;;;;;9.08;5.78;;;;;;;18.12;100.00;101211.33;1768659;81;21016;-90
2022/07/30 04:20:25;;;;;;;8.18;5.90;;;;;;;18.24;100.00;101205.34;1756289;81;21484;-90
2022/07/30 04:22:57;;;;;;;12.70;4.67;;;;;;;18.38;100.00;101211.39;1758980;81;21018;-89
2022/07/30 04:25:26;;;;;;;8.65;4.60;;;;;;;18.52;100.00;101205.22;1771373;81;21555;-88
2022/07/30 04:27:54;;;;;;;9.85;4.80;;;;;;;18.66;100.00;101202.53;1771235;80;21037;-92
2022/07/30 04:30:23;;;;;;;7.58;4.85;;;;;;;18.76;100.00;101197.48;1771063;81;21049;-89
2022/07/30 04:32:55;;;;;;;8.58;4.60;;;;;;;18.87;100.00;101199.03;1770969;79;20999;-89
2022/07/30 04:35:30;;;;;;;10.18;5.35;;;;;;;18.96;100.00;101194.67;1766459;81;20935;-89
2022/07/30 04:38:09;;;;;;;7.97;4.65;;;;;;;19.05;100.00;101194.22;1757446;81;20995;-90
2022/07/30 04:40:37;;;;;;;8.33;4.27;;;;;;;19.14;100.00;101189.83;1771341;80;21054;-89
2022/07/30 04:43:06;;;;;;;7.12;4.17;;;;;;;19.25;100.00;101193.99;1765552;80;20979;-90
2022/07/30 04:45:44;;;;;;;8.83;4.33;;;;;;;19.39;100.00;101201.30;1765904;81;21789;-89
2022/07/30 04:48:12;;;;;;;6.30;3.85;;;;;;;19.53;100.00;101203.33;1774250;80;21753;-92
2022/07/30 04:50:53;;;;;;;8.35;4.60;;;;;;;19.69;100.00;101203.05;1780485;80;21615;-90
2022/07/30 04:53:27;;;;;;;8.03;4.50;;;;;;;19.81;100.00;101207.05;1780223;80;21029;-91
2022/07/30 04:55:59;;;;;;;8.28;4.20;;;;;;;19.93;100.00;101211.56;1780394;80;21014;-91
2022/07/30 04:58:33;;;;;;;7.17;4.30;;;;;;;20.05;100.00;101205.47;1779557;80;21029;-91
2022/07/30 05:09:08;;;;;;;8.28;3.83;;;;;;;20.49;100.00;101209.10;1780638;80;21081;-90
2022/07/30 05:11:38;;;;;;;7.85;4.08;;;;;;;20.74;100.00;101207.78;1780570;80;20999;-90
2022/07/30 05:18:19;;;;;;;7.65;4.22;;;;;;;21.07;100.00;101210.86;1777903;80;21568;-93
2022/07/30 05:29:41;;;;;;;5.15;3.47;;;;;;;21.74;100.00;101211.75;1764569;80;21026;-92
2022/07/30 05:36:26;;;;;;;4.20;2.90;;;;;;;22.13;100.00;101198.56;1703788;83;21090;-91
2022/07/30 05:47:44;;;;;;;5.70;3.05;;;;;;;22.81;100.00;101194.64;1750208;82;21033;-90
2022/07/30 05:50:37;;;;;;;3.40;2.60;;;;;;;23.03;100.00;101196.08;1749142;81;21255;-91
2022/07/30 05:53:37;;;;;;;5.95;3.20;;;;;;;23.13;100.00;101197.93;1742635;82;21488;-91
2022/07/30 05:56:44;;;;;;;7.22;3.30;;;;;;;23.22;100.00;101186.75;1742505;82;21060;-92
2022/07/30 05:59:17;;;;;;;4.17;3.00;;;;;;;23.31;100.00;101193.09;1744146;81;21087;-89
2022/07/30 06:02:05;;;;;;;5.97;3.12;;;;;;;23.47;100.00;101195.21;1741712;80;21064;-92
2022/07/30 06:04:53;;;;;;;4.05;3.45;;;;;;;23.63;100.00;101194.98;1737631;82;21172;-92
2022/07/30 06:07:22;;;;;;;5.12;3.10;;;;;;;23.81;100.00;101192.41;1737902;82;21008;-92
2022/07/30 06:09:58;;;;;;;6.42;3.80;;;;;;;24.00;100.00;101195.47;1738408;82;21044;-92
2022/07/30 06:16:11;;;;;;;4.70;3.40;;;;;;;24.25;100.00;101183.41;1737770;82;21076;-93
2022/07/30 06:18:41;;;;;;;3.90;3.50;;;;;;;24.43;100.00;101190.11;1737627;82;21534;-92
2022/07/30 06:21:11;;;;;;;3.67;2.70;;;;;;;24.52;100.00;101180.97;1757354;81;21030;-92
2022/07/30 06:24:30;;;;;;;4.00;1.70;;;;;;;24.66;100.00;101186.36;1769134;81;21041;-92
2022/07/30 06:27:07;;;;;;;4.90;1.67;;;;;;;24.76;81.50;101180.22;1764721;80;21082;-93
2022/07/30 06:29:36;;;;;;;4.55;1.75;;;;;;;24.85;78.79;101180.38;1773219;81;21481;-93
2022/07/30 06:32:07;;;;;;;4.92;1.80;;;;;;;24.95;74.24;101176.54;1749544;81;21782;-93
2022/07/30 06:35:14;;;;;;;6.03;1.98;;;;;;;25.01;73.74;101168.56;1748607;81;21096;-93
2022/07/30 06:37:49;;;;;;;3.50;1.90;;;;;;;25.11;72.95;101162.05;1771614;81;21065;-94
2022/07/30 06:40:21;;;;;;;4.92;1.80;;;;;;;25.25;75.23;101152.27;1772660;80;21120;-92
2022/07/30 06:43:03;;;;;;;3.58;1.60;;;;;;;25.35;66.85;101158.05;1778316;80;21010;-93
2022/07/30 06:45:40;;;;;;;;;;;;;;;25.43;65.61;101161.89;1720723;82;21240;-94
2022/07/30 06:48:12;;;;;;;6.35;1.65;;;;;;;25.50;62.16;101160.56;1765125;80;20117;-89
2022/07/30 06:54:46;;;;;;;5.85;1.92;;;;;;;25.60;58.81;101161.52;1759566;81;21037;-90
2022/07/30 07:04:24;;;;;;;2.60;1.72;;;;;;;25.68;55.69;101154.64;1764869;81;21018;-91
2022/07/30 07:06:52;;;;;;;1.82;1.40;;;;;;;25.73;57.55;101152.20;1765192;81;21485;-93
2022/07/30 07:09:24;;;;;;;8.70;2.12;;;;;;;25.83;56.41;101153.13;1762295;80;21026;-92
2022/07/30 07:11:53;;;;;;;3.25;1.57;;;;;;;25.88;55.87;101143.99;1751181;81;20995;-92
2022/07/30 07:14:21;;;;;;;2.30;1.50;;;;;;;25.98;56.83;101142.27;1764807;81;21792;-92
2022/07/30 07:16:48;;;;;;;6.85;1.75;;;;;;;26.08;55.35;101146.69;1738430;81;20987;-90
2022/07/30 07:19:21;;;;;;;2.37;1.80;;;;;;;26.17;55.29;101139.81;1703963;83;21053;-91
2022/07/30 07:21:49;;;;;;;2.98;1.72;;;;;;;26.24;55.40;101141.47;1714723;83;21028;-88
2022/07/30 07:24:17;;;;;;;2.90;1.67;;;;;;;26.32;52.76;101139.08;1690558;83;21064;-94
2022/07/30 07:26:55;;;;;;;4.50;1.85;;;;;;;26.36;47.94;101145.66;1726892;80;21041;-91
2022/07/30 07:29:22;;;;;;;2.22;2.02;;;;;;;26.35;48.93;101146.68;1780002;80;21005;-92
2022/07/30 07:31:52;;;;;;;5.30;1.98;;;;;;;26.36;49.34;101135.50;1759735;80;21428;-92
2022/07/30 07:34:20;;;;;;;10.88;2.65;;;;;;;26.40;48.09;101135.37;1750052;82;21005;-92
2022/07/30 07:36:49;;;;;;;3.22;1.82;;;;;;;26.47;49.09;101138.05;1732211;82;21096;-91
2022/07/30 07:39:17;;;;;;;3.50;1.80;;;;;;;26.53;48.00;101139.34;1720458;83;21145;-91
2022/07/30 07:41:44;;;;;;;2.02;1.50;;;;;;;26.54;48.31;101128.98;1729649;80;21125;-90
2022/07/30 07:44:11;;;;;;;3.50;1.80;;;;;;;26.57;49.39;101135.74;1718954;82;21053;-91
2022/07/30 07:46:39;;;;;;;3.15;1.98;;;;;;;26.67;49.77;101138.81;1750463;82;21072;-96
2022/07/30 07:49:08;;;;;;;3.98;1.60;;;;;;;26.75;48.81;101139.11;1750770;82;21067;-96
2022/07/30 07:51:38;;;;;;;3.47;1.62;;;;;;;26.85;47.59;101137.34;1745762;82;21378;-85
2022/07/30 07:54:09;;;;;;;;;;;;;;;26.93;48.55;101140.59;1752989;82;20990;-85
2022/07/30 07:56:38;;;;;;;1.90;1.50;;;;;;;27.03;45.22;101142.83;1744995;81;20137;-85
2022/07/30 07:59:07;;;;;;;13.00;2.20;;;;;;;27.07;46.54;101140.02;1720464;82;20918;-86
2022/07/30 08:01:34;;;;;;;5.90;2.17;;;;;;;27.16;46.52;101143.78;1750913;82;21499;-85
2022/07/30 08:04:06;;;;;;;3.67;1.98;;;;;;;27.19;44.19;101138.83;1743301;82;21272;-85
2022/07/30 08:06:49;;;;;;;2.85;1.80;;;;;;;27.21;45.58;101137.27;1687033;82;21033;-86
2022/07/30 08:09:34;;;;;;;4.45;2.30;;;;;;;27.27;45.25;101144.96;1750570;82;20974;-85
2022/07/30 08:12:07;;;;;;;4.97;2.20;;;;;;;27.35;46.18;101134.85;1745209;82;21036;-85
2022/07/30 08:14:54;;;;;;;2.12;1.92;;;;;;;27.43;44.40;101133.80;1750500;82;21503;-85
2022/07/30 08:17:23;;;;;;;3.40;2.00;;;;;;;27.47;45.65;101129.67;1745194;82;21108;-84
2022/07/30 08:20:06;;;;;;;5.58;2.20;;;;;;;27.58;44.94;101140.19;1749596;80;21037;-85
2022/07/30 08:22:34;;;;;;;3.75;2.00;;;;;;;27.61;46.06;101130.38;1750783;82;21047;-85
2022/07/30 08:25:03;;;;;;;2.72;2.08;;;;;;;27.64;44.14;101133.16;1750628;82;21101;-85
2022/07/30 08:27:30;;;;;;;2.72;2.10;;;;;;;27.61;44.60;101133.05;1750484;82;20950;-85
2022/07/30 08:30:00;;;;;;;5.10;2.05;;;;;;;27.61;44.71;101125.56;1750444;82;21205;-86
2022/07/30 08:32:27;;;;;;;2.20;2.08;;;;;;;27.60;43.78;101124.72;1718991;82;21025;-86
2022/07/30 08:34:55;;;;;;;3.45;2.20;;;;;;;27.66;45.85;101121.20;1750566;82;21001;-85
2022/07/30 08:37:22;;;;;;;2.72;1.90;;;;;;;27.81;45.30;101114.70;1750615;82;20978;-87
2022/07/30 08:39:50;;;;;;;6.55;2.20;;;;;;;27.95;45.76;101113.55;1750607;82;20999;-86
2022/07/30 08:42:18;;;;;;;7.15;2.25;;;;;;;28.06;45.17;101107.19;1752864;80;22302;-86
2022/07/30 08:44:46;;;;;;;4.50;2.20;;;;;;;28.11;45.02;101104.19;1773219;80;20969;-88
2022/07/30 08:47:18;;;;;;;4.15;1.98;;;;;;;28.13;43.68;101106.63;1773320;80;21164;-89
2022/07/30 08:49:54;;;;;;;2.20;1.92;;;;;;;28.12;44.59;101117.03;1769908;81;20970;-89
2022/07/30 08:52:24;;;;;;;2.75;2.00;;;;;;;28.13;45.08;101108.78;1773190;80;21500;-89
2022/07/30 08:55:01;;;;;;;4.22;2.77;;;;;;;28.15;44.44;101097.34;1769867;81;21493;-90
2022/07/30 08:57:31;;;;;;;6.20;4.42;;;;;;;28.13;43.70;101102.08;1773385;80;21022;-89
2022/07/30 08:59:59;;;;;;;6.15;3.92;;;;;;;28.17;42.70;101093.93;1773203;81;20963;-90
2022/07/30 09:02:31;;;;;;;6.20;4.03;;;;;;;28.25;43.14;101095.48;1773168;80;21172;-88
2022/07/30 09:04:59;;;;;;;3.95;3.45;;;;;;;28.30;42.28;101087.62;1772601;80;20990;-89
2022/07/30 09:07:27;;;;;;;4.75;4.35;;;;;;;28.32;42.64;101092.20;1773474;81;21584;-88
2022/07/30 09:09:57;;;;;;;5.20;4.70;;;;;;;28.37;42.43;101104.93;1773117;81;20998;-89
2022/07/30 09:12:39;;;;;;;9.05;5.22;;;;;;;28.40;42.55;101097.00;1773099;80;22028;-89
2022/07/30 09:15:18;;;;;;;9.30;5.60;;;;;;;28.46;42.71;101091.55;1773491;81;21469;-88
2022/07/30 09:17:54;;;;;;;5.62;5.12;;;;;;;28.51;42.55;101087.40;1773356;81;21038;-89
2022/07/30 09:20:28;;;;;;;9.08;6.30;;;;;;;28.55;42.82;101085.39;1773202;81;21278;-88
2022/07/30 09:22:58;;;;;;;6.70;5.95;;;;;;;28.63;41.42;101089.11;1773136;80;21540;-87
2022/07/30 09:25:39;;;;;;;7.10;5.80;;;;;;;28.68;40.75;101091.11;1769493;80;21021;-88
2022/07/30 09:28:33;;;;;;;5.37;4.90;;;;;;;28.78;42.35;101093.28;1773686;81;21497;-88
2022/07/30 09:31:03;;;;;;;8.10;4.78;;;;;;;28.87;40.53;101086.57;1718219;80;21034;-88
2022/07/30 09:33:47;;;;;;;6.42;4.33;;;;;;;28.91;41.59;101081.04;1684605;84;22092;-88
2022/07/30 09:36:18;;;;;;;5.62;4.17;;;;;;;28.93;42.48;101082.98;1721307;81;20990;-89
2022/07/30 09:38:53;;;;;;;6.50;4.30;;;;;;;29.00;42.12;101082.06;1743628;81;20998;-89
2022/07/30 09:41:36;;;;;;;6.47;3.40;;;;;;;29.09;41.09;101082.05;1713447;80;21069;-90
2022/07/30 09:44:08;;;;;;;3.92;2.45;;;;;;;29.18;43.40;101063.25;1769694;80;21453;-91
2022/07/30 09:46:46;;;;;;;4.37;2.60;;;;;;;29.24;40.76;101078.41;1769794;81;21159;-90
2022/07/30 09:49:26;;;;;;;2.60;2.40;;;;;;;29.17;40.43;101095.13;1769834;80;20978;-92
2022/07/30 09:51:55;;;;;;;3.15;2.50;;;;;;;29.13;40.04;101087.23;1773035;81;21613;-90
2022/07/30 09:54:44;;;;;;;7.12;3.02;;;;;;;29.15;38.35;101081.66;1773113;80;21453;-90
2022/07/30 09:57:12;;;;;;;3.40;2.55;;;;;;;29.20;41.64;101093.34;1773260;81;21524;-89
2022/07/30 09:59:39;;;;;;;4.72;2.55;;;;;;;29.31;39.23;101089.08;1758325;80;21086;-90
2022/07/30 10:02:08;;;;;;;2.65;2.30;;;;;;;29.28;38.76;101090.84;1755170;81;20976;-89
2022/07/30 10:05:14;;;;;;;2.65;2.45;;;;;;;29.29;38.83;101088.45;1754995;81;21051;-91
2022/07/30 10:07:51;;;;;;;6.12;2.60;;;;;;;29.31;40.66;101085.53;1754876;80;21031;-91
2022/07/30 10:10:26;;;;;;;3.90;2.20;;;;;;;29.37;40.50;101087.33;1755027;81;20936;-91
2022/07/30 10:13:01;;;;;;;2.65;2.08;;;;;;;29.43;40.01;101079.72;1755071;81;21027;-90
2022/07/30 10:15:34;;;;;;;5.08;2.33;;;;;;;29.51;40.62;101070.00;1755083;81;21032;-90
2022/07/30 10:18:05;;;;;;;3.08;2.30;;;;;;;29.65;40.37;101073.26;1755298;81;21568;-89
2022/07/30 10:20:36;;;;;;;5.15;2.40;;;;;;;29.70;38.33;101077.42;1704072;81;21036;-89
2022/07/30 10:23:16;;;;;;;3.60;2.37;;;;;;;29.57;38.76;101075.77;1714840;81;21101;-89
2022/07/30 10:25:56;;;;;;;4.65;2.33;;;;;;;29.48;37.86;101071.79;1699261;81;21355;-90
2022/07/30 10:28:42;;;;;;;2.58;2.37;;;;;;;29.46;38.30;101083.27;1755233;81;21496;-90
2022/07/30 10:31:10;;;;;;;2.62;2.40;;;;;;;29.34;38.28;101076.53;1755181;81;21018;-88
2022/07/30 10:33:37;;;;;;;3.37;2.52;;;;;;;29.17;38.40;101076.36;1755484;81;21043;-89
2022/07/30 10:36:05;;;;;;;3.50;2.42;;;;;;;29.03;39.29;101080.28;1755178;81;21018;-91
2022/07/30 10:38:36;;;;;;;3.67;2.40;;;;;;;28.93;39.16;101074.94;1755554;81;21982;-90
2022/07/30 10:41:35;;;;;;;4.92;2.87;;;;;;;28.88;38.23;101073.98;1752177;81;21004;-91
2022/07/30 10:44:31;;;;;;;5.87;2.20;;;;;;;28.89;39.98;101077.77;1755173;80;21032;-91
2022/07/30 10:47:05;;;;;;;4.53;2.60;;;;;;;28.99;37.77;101078.58;1755859;81;21525;-91
2022/07/30 10:49:34;;;;;;;5.62;2.50;;;;;;;28.89;36.93;101081.78;1735757;81;21564;-90
2022/07/30 10:52:01;;;;;;;3.45;2.55;;;;;;;28.79;37.31;101082.33;1753703;81;21148;-95
2022/07/30 10:54:40;;;;;;;2.75;2.47;;;;;;;28.74;37.49;101080.02;1758062;81;21083;-96
2022/07/30 10:57:15;;;;;;;3.55;2.35;;;;;;;28.78;39.04;101076.67;1753335;81;21014;-96
2022/07/30 11:00:02;;;;;;;3.92;2.40;;;;;;;28.90;38.85;101072.70;1757096;80;21547;-95
2022/07/30 11:02:33;;;;;;;4.33;2.12;;;;;;;29.07;38.45;101074.23;1757197;81;20975;-96
2022/07/30 11:05:21;;;;;;;4.05;2.40;;;;;;;29.20;37.51;101071.06;1754045;81;21290;-96
2022/07/30 11:07:48;;;;;;;4.25;2.25;;;;;;;29.22;37.96;101064.95;1768796;80;20986;-96
2022/07/30 11:10:37;;;;;;;2.87;2.30;;;;;;;29.17;37.02;101064.30;1758531;81;21086;-94
2022/07/30 11:13:06;;;;;;;5.55;2.50;;;;;;;29.05;38.22;101066.94;1760810;81;21049;-96
2022/07/30 11:15:56;;;;;;;6.65;2.55;;;;;;;29.03;37.72;101062.86;1751571;80;20978;-95
2022/07/30 11:18:26;;;;;;;2.80;2.05;;;;;;;29.09;36.71;101057.92;1712678;83;21144;-96
2022/07/30 11:21:18;;;;;;;3.25;2.00;;;;;;;29.20;38.38;101058.99;1705281;83;21014;-95
2022/07/30 11:23:47;;;;;;;4.22;2.33;;;;;;;29.35;38.21;101064.77;1761744;80;21579;-96
2022/07/30 11:26:47;;;;;;;6.72;2.40;;;;;;;29.50;37.40;101066.19;1770592;80;21070;-96
2022/07/30 11:29:34;;;;;;;2.72;2.33;;;;;;;29.56;36.95;101067.43;1743328;80;20963;-96
2022/07/30 11:32:26;;;;;;;2.55;1.85;;;;;;;29.58;36.44;101073.39;1755570;80;21753;-95
2022/07/30 11:35:25;;;;;;;5.00;2.20;;;;;;;29.52;35.96;101062.76;1759885;80;21005;-95
2022/07/30 11:38:14;;;;;;;3.87;2.08;;;;;;;29.41;36.97;101054.99;1738284;81;20994;-96
2022/07/30 11:40:48;;;;;;;2.35;2.10;;;;;;;29.31;36.35;101067.63;1759376;81;21069;-95
2022/07/30 11:43:34;;;;;;;2.83;1.90;;;;;;;29.18;37.07;101053.03;1769142;81;21033;-96
2022/07/30 11:46:18;;;;;;;2.20;2.00;;;;;;;29.14;37.50;101058.03;1744550;81;21172;-96
2022/07/30 11:48:56;;;;;;;4.12;2.10;;;;;;;29.24;36.49;101060.98;1766552;80;21059;-96
2022/07/30 11:51:23;;;;;;;2.77;2.00;;;;;;;29.39;37.65;101068.64;1761771;80;21034;-96
2022/07/30 11:54:05;;;;;;;2.15;1.95;;;;;;;29.58;37.08;101055.95;1761287;81;21092;-95
2022/07/30 11:56:33;;;;;;;8.28;2.40;;;;;;;29.75;36.37;101051.23;1773784;80;21037;-96
2022/07/30 11:59:05;;;;;;;3.15;2.40;;;;;;;29.88;36.68;101044.28;1773946;80;22018;-96
2022/07/30 12:01:34;;;;;;;3.75;2.20;;;;;;;30.00;37.10;101047.52;1772965;81;21489;-93
2022/07/30 12:04:04;;;;;;;4.72;2.08;;;;;;;30.03;37.26;101041.67;1772720;80;21037;-96
2022/07/30 12:06:32;;;;;;;2.65;2.45;;;;;;;30.09;37.05;101046.63;1772865;80;21100;-94
2022/07/30 12:08:59;;;;;;;2.55;2.17;;;;;;;30.09;36.87;101046.63;1772847;80;21005;-94
2022/07/30 12:11:35;;;;;;;4.30;2.33;;;;;;;30.04;37.07;101040.63;1772711;80;21814;-94
2022/07/30 12:14:03;;;;;;;3.90;2.15;;;;;;;30.08;36.71;101043.65;1772840;81;21025;-93
2022/07/30 12:16:32;;;;;;;2.85;1.95;;;;;;;30.11;36.06;101037.28;1761782;81;21492;-93
2022/07/30 12:19:05;;;;;;;5.45;2.50;;;;;;;30.12;36.40;101032.20;1761079;80;21035;-93
2022/07/30 12:21:34;;;;;;;2.10;2.00;;;;;;;30.15;35.29;101028.22;1761028;81;21083;-96
2022/07/30 12:24:12;;;;;;;3.95;2.40;;;;;;;30.16;36.71;101032.03;1759633;81;21172;-96
2022/07/30 12:26:41;;;;;;;4.08;2.17;;;;;;;30.15;36.00;101028.22;1758115;81;21106;-95
2022/07/30 12:29:11;;;;;;;3.15;2.70;;;;;;;30.10;35.69;101035.64;1759643;80;21046;-95
2022/07/30 12:31:40;;;;;;;4.08;2.40;;;;;;;29.97;35.61;101026.51;1761234;80;28292;-93
2022/07/30 12:34:25;;;;;;;3.05;2.75;;;;;;;29.88;36.81;101029.52;1757261;80;21519;-94
2022/07/30 12:36:53;;;;;;;5.62;2.45;;;;;;;29.99;36.72;101023.87;1761025;80;21121;-94
2022/07/30 12:39:25;;;;;;;3.70;2.25;;;;;;;30.10;36.19;101026.78;1756751;81;21044;-94
2022/07/30 12:41:57;;;;;;;3.08;1.90;;;;;;;30.12;36.58;101012.06;1755593;81;21365;-92
2022/07/30 12:44:43;;;;;;;2.17;2.00;;;;;;;30.17;36.55;101016.19;1763799;80;21086;-95
2022/07/30 12:47:25;;;;;;;3.87;2.30;;;;;;;30.24;35.45;101021.98;1749078;81;21052;-94
2022/07/30 12:49:56;;;;;;;5.53;2.53;;;;;;;30.09;34.70;101010.38;1760463;81;21088;-93
2022/07/30 12:52:32;;;;;;;4.08;2.22;;;;;;;29.97;35.23;101020.59;1727058;82;21564;-93
2022/07/30 12:55:07;;;;;;;6.03;2.10;;;;;;;29.90;35.57;101022.06;1761887;80;20959;-93
2022/07/30 12:58:05;;;;;;;5.42;2.67;;;;;;;29.90;36.61;101013.17;1754940;80;21062;-93